sensor_id;sensor_type;location;lat;lon;timestamp;pressure;altitude;pressure_sealevel;temperature;humidity
68399;BME280;56258;52.196;13.868;2023-03-01T00:00:49;102738.69;;;19.51;31.99
68399;BME280;56258;52.196;13.868;2023-03-01T00:03:16;102741.66;;;19.48;31.90
68399;BME280;56258;52.196;13.868;2023-03-01T00:05:47;102737.25;;;19.47;31.78
68399;BME280;56258;52.196;13.868;2023-03-01T00:08:13;102728.19;;;19.48;32.32
68399;BME280;56258;52.196;13.868;2023-03-01T00:10:40;102728.44;;;19.45;32.51
68399;BME280;56258;52.196;13.868;2023-03-01T00:13:06;102729.16;;;19.47;32.18
68399;BME280;56258;52.196;13.868;2023-03-01T00:15:33;102716.66;;;19.46;32.17
68399;BME280;56258;52.196;13.868;2023-03-01T00:18:03;102717.91;;;19.42;32.51
68399;BME280;56258;52.196;13.868;2023-03-01T00:20:30;102699.88;;;19.42;32.15
68399;BME280;56258;52.196;13.868;2023-03-01T00:22:57;102704.41;;;19.42;32.14
68399;BME280;56258;52.196;13.868;2023-03-01T00:25:23;102701.72;;;19.42;32.71
68399;BME280;56258;52.196;13.868;2023-03-01T00:27:50;102695.75;;;19.38;32.17
68399;BME280;56258;52.196;13.868;2023-03-01T00:30:16;102702.44;;;19.44;32.18
68399;BME280;56258;52.196;13.868;2023-03-01T00:32:43;102691.19;;;19.39;32.32
68399;BME280;56258;52.196;13.868;2023-03-01T00:35:10;102689.09;;;19.42;32.06
68399;BME280;56258;52.196;13.868;2023-03-01T00:37:36;102692.78;;;19.41;32.50
68399;BME280;56258;52.196;13.868;2023-03-01T00:40:03;102686.38;;;19.42;32.04
68399;BME280;56258;52.196;13.868;2023-03-01T00:42:32;102695.31;;;19.43;32.14
68399;BME280;56258;52.196;13.868;2023-03-01T00:44:59;102693.63;;;19.42;32.22
68399;BME280;56258;52.196;13.868;2023-03-01T00:47:25;102695.19;;;19.44;32.45
68399;BME280;56258;52.196;13.868;2023-03-01T00:49:54;102692.38;;;19.46;32.10
68399;BME280;56258;52.196;13.868;2023-03-01T00:52:21;102695.09;;;19.46;32.04
68399;BME280;56258;52.196;13.868;2023-03-01T00:54:47;102683.56;;;19.44;32.32
68399;BME280;56258;52.196;13.868;2023-03-01T00:57:14;102684.41;;;19.44;32.19
68399;BME280;56258;52.196;13.868;2023-03-01T00:59:41;102688.94;;;19.44;31.81
68399;BME280;56258;52.196;13.868;2023-03-01T01:02:07;102683.56;;;19.44;32.14
68399;BME280;56258;52.196;13.868;2023-03-01T01:04:34;102676.44;;;19.43;32.17
68399;BME280;56258;52.196;13.868;2023-03-01T01:07:01;102674.50;;;19.45;32.17
68399;BME280;56258;52.196;13.868;2023-03-01T01:09:27;102669.34;;;19.42;32.08
68399;BME280;56258;52.196;13.868;2023-03-01T01:11:54;102674.59;;;19.43;31.69
68399;BME280;56258;52.196;13.868;2023-03-01T01:14:20;102672.75;;;19.44;31.93
68399;BME280;56258;52.196;13.868;2023-03-01T01:16:47;102665.41;;;19.46;31.83
68399;BME280;56258;52.196;13.868;2023-03-01T01:19:14;102672.03;;;19.42;32.15
68399;BME280;56258;52.196;13.868;2023-03-01T01:21:41;102685.28;;;19.45;31.86
68399;BME280;56258;52.196;13.868;2023-03-01T01:24:09;102691.78;;;19.42;31.67
68399;BME280;56258;52.196;13.868;2023-03-01T01:26:36;102689.94;;;19.43;32.06
68399;BME280;56258;52.196;13.868;2023-03-01T01:29:04;102688.69;;;19.47;31.70
68399;BME280;56258;52.196;13.868;2023-03-01T01:31:32;102693.38;;;19.45;31.86
68399;BME280;56258;52.196;13.868;2023-03-01T01:34:01;102687.84;;;19.46;31.58
68399;BME280;56258;52.196;13.868;2023-03-01T01:36:28;102677.19;;;19.45;31.74
68399;BME280;56258;52.196;13.868;2023-03-01T01:38:56;102675.59;;;19.42;31.65
68399;BME280;56258;52.196;13.868;2023-03-01T01:41:24;102666.66;;;19.42;31.46
68399;BME280;56258;52.196;13.868;2023-03-01T01:44:17;102670.34;;;19.41;31.44
68399;BME280;56258;52.196;13.868;2023-03-01T01:46:54;102665.94;;;19.40;31.69
68399;BME280;56258;52.196;13.868;2023-03-01T01:51:49;102644.63;;;19.37;31.55
68399;BME280;56258;52.196;13.868;2023-03-01T01:54:22;102654.28;;;19.39;31.60
68399;BME280;56258;52.196;13.868;2023-03-01T01:56:55;102657.69;;;19.41;31.87
68399;BME280;56258;52.196;13.868;2023-03-01T01:59:24;102647.31;;;19.37;32.08
68399;BME280;56258;52.196;13.868;2023-03-01T02:01:52;102646.34;;;19.38;31.59
68399;BME280;56258;52.196;13.868;2023-03-01T02:04:19;102647.53;;;19.45;31.73
68399;BME280;56258;52.196;13.868;2023-03-01T02:06:51;102647.81;;;19.51;31.29
68399;BME280;56258;52.196;13.868;2023-03-01T02:09:20;102651.13;;;19.55;31.56
68399;BME280;56258;52.196;13.868;2023-03-01T02:11:49;102643.78;;;19.57;31.58
68399;BME280;56258;52.196;13.868;2023-03-01T02:14:16;102641.94;;;19.58;31.89
68399;BME280;56258;52.196;13.868;2023-03-01T02:16:43;102644.06;;;19.64;31.39
68399;BME280;56258;52.196;13.868;2023-03-01T02:19:21;102645.94;;;19.63;31.28
68399;BME280;56258;52.196;13.868;2023-03-01T02:22:07;102645.06;;;19.63;31.30
68399;BME280;56258;52.196;13.868;2023-03-01T02:27:31;102649.34;;;19.65;31.32
68399;BME280;56258;52.196;13.868;2023-03-01T02:29:59;102652.03;;;19.65;31.65
68399;BME280;56258;52.196;13.868;2023-03-01T02:32:26;102655.72;;;19.64;31.74
68399;BME280;56258;52.196;13.868;2023-03-01T02:34:56;102647.63;;;19.64;31.68
68399;BME280;56258;52.196;13.868;2023-03-01T02:37:24;102644.94;;;19.64;31.86
68399;BME280;56258;52.196;13.868;2023-03-01T02:39:59;102643.09;;;19.65;31.57
68399;BME280;56258;52.196;13.868;2023-03-01T02:42:36;102636.97;;;19.63;32.07
68399;BME280;56258;52.196;13.868;2023-03-01T02:45:06;102637.13;;;19.61;31.58
68399;BME280;56258;52.196;13.868;2023-03-01T02:47:33;102647.91;;;19.61;31.92
68399;BME280;56258;52.196;13.868;2023-03-01T02:50:00;102647.91;;;19.61;31.57
68399;BME280;56258;52.196;13.868;2023-03-01T02:53:08;102656.00;;;19.61;31.30
68399;BME280;56258;52.196;13.868;2023-03-01T02:55:37;102661.53;;;19.60;31.74
68399;BME280;56258;52.196;13.868;2023-03-01T02:58:04;102660.53;;;19.61;31.31
68399;BME280;56258;52.196;13.868;2023-03-01T03:00:37;102661.25;;;19.63;31.56
68399;BME280;56258;52.196;13.868;2023-03-01T03:03:14;102647.06;;;19.61;32.10
68399;BME280;56258;52.196;13.868;2023-03-01T03:05:42;102658.69;;;19.61;31.71
68399;BME280;56258;52.196;13.868;2023-03-01T03:08:09;102643.38;;;19.62;31.61
68399;BME280;56258;52.196;13.868;2023-03-01T03:10:38;102648.63;;;19.63;31.58
68399;BME280;56258;52.196;13.868;2023-03-01T03:13:11;102647.63;;;19.64;31.97
68399;BME280;56258;52.196;13.868;2023-03-01T03:15:38;102648.75;;;19.62;31.74
68399;BME280;56258;52.196;13.868;2023-03-01T03:18:09;102638.81;;;19.62;31.55
68399;BME280;56258;52.196;13.868;2023-03-01T03:20:36;102643.22;;;19.63;31.73
68399;BME280;56258;52.196;13.868;2023-03-01T03:23:05;102634.41;;;19.61;32.08
68399;BME280;56258;52.196;13.868;2023-03-01T03:25:31;102640.81;;;19.60;31.85
68399;BME280;56258;52.196;13.868;2023-03-01T03:27:58;102630.88;;;19.61;31.67
68399;BME280;56258;52.196;13.868;2023-03-01T03:30:29;102635.41;;;19.60;32.10
68399;BME280;56258;52.196;13.868;2023-03-01T03:32:57;102635.41;;;19.60;31.69
68399;BME280;56258;52.196;13.868;2023-03-01T03:35:31;102633.00;;;19.57;31.78
68399;BME280;56258;52.196;13.868;2023-03-01T03:38:01;102640.94;;;19.59;31.67
68399;BME280;56258;52.196;13.868;2023-03-01T03:40:38;102633.94;;;19.56;31.81
68399;BME280;56258;52.196;13.868;2023-03-01T03:43:25;102627.69;;;19.56;31.65
68399;BME280;56258;52.196;13.868;2023-03-01T03:45:52;102631.34;;;19.54;31.85
68399;BME280;56258;52.196;13.868;2023-03-01T03:48:20;102627.69;;;19.56;31.77
68399;BME280;56258;52.196;13.868;2023-03-01T03:50:49;102631.25;;;19.56;31.99
68399;BME280;56258;52.196;13.868;2023-03-01T03:53:16;102625.97;;;19.54;31.77
68399;BME280;56258;52.196;13.868;2023-03-01T03:55:42;102630.28;;;19.57;32.19
68399;BME280;56258;52.196;13.868;2023-03-01T03:58:11;102628.56;;;19.56;32.18
68399;BME280;56258;52.196;13.868;2023-03-01T04:00:40;102628.56;;;19.56;32.52
68399;BME280;56258;52.196;13.868;2023-03-01T04:03:07;102620.56;;;19.45;32.55
68399;BME280;56258;52.196;13.868;2023-03-01T04:05:35;102620.78;;;19.42;31.93
68399;BME280;56258;52.196;13.868;2023-03-01T04:08:02;102612.00;;;19.40;32.15
68399;BME280;56258;52.196;13.868;2023-03-01T04:10:31;102612.28;;;19.37;32.39
68399;BME280;56258;52.196;13.868;2023-03-01T04:12:58;102601.00;;;19.32;32.55
68399;BME280;56258;52.196;13.868;2023-03-01T04:15:26;102604.56;;;19.32;32.36
68399;BME280;56258;52.196;13.868;2023-03-01T04:17:54;102595.22;;;19.36;32.51
68399;BME280;56258;52.196;13.868;2023-03-01T04:20:23;102599.91;;;19.34;31.96
68399;BME280;56258;52.196;13.868;2023-03-01T04:22:59;102596.59;;;19.31;32.19
68399;BME280;56258;52.196;13.868;2023-03-01T04:28:15;102605.56;;;19.31;32.21
68399;BME280;56258;52.196;13.868;2023-03-01T04:30:42;102600.28;;;19.30;31.99
68399;BME280;56258;52.196;13.868;2023-03-01T04:33:10;102603.00;;;19.30;32.12
68399;BME280;56258;52.196;13.868;2023-03-01T04:35:38;102594.91;;;19.30;32.37
68399;BME280;56258;52.196;13.868;2023-03-01T04:38:05;102590.09;;;19.33;32.37
68399;BME280;56258;52.196;13.868;2023-03-01T04:40:33;102586.09;;;19.28;32.57
68399;BME280;56258;52.196;13.868;2023-03-01T04:42:59;102587.94;;;19.27;32.11
68399;BME280;56258;52.196;13.868;2023-03-01T04:45:26;102591.34;;;19.29;31.89
68399;BME280;56258;52.196;13.868;2023-03-01T04:47:54;102595.19;;;19.27;32.04
68399;BME280;56258;52.196;13.868;2023-03-01T04:50:20;102584.53;;;19.25;32.39
68399;BME280;56258;52.196;13.868;2023-03-01T04:52:47;102578.00;;;19.28;31.69
68399;BME280;56258;52.196;13.868;2023-03-01T04:55:14;102579.84;;;19.27;32.38
68399;BME280;56258;52.196;13.868;2023-03-01T04:57:41;102581.97;;;19.23;32.11
68399;BME280;56258;52.196;13.868;2023-03-01T05:00:11;102580.69;;;19.28;32.19
68399;BME280;56258;52.196;13.868;2023-03-01T05:02:48;102573.88;;;19.23;31.65
68399;BME280;56258;52.196;13.868;2023-03-01T05:05:21;102582.41;;;19.29;31.51
68399;BME280;56258;52.196;13.868;2023-03-01T05:07:56;102577.28;;;19.26;31.95
68399;BME280;56258;52.196;13.868;2023-03-01T05:10:24;102583.81;;;19.23;31.64
68399;BME280;56258;52.196;13.868;2023-03-01T05:12:51;102584.66;;;19.23;31.76
68399;BME280;56258;52.196;13.868;2023-03-01T05:15:19;102579.28;;;19.23;31.82
68399;BME280;56258;52.196;13.868;2023-03-01T05:17:49;102584.38;;;19.27;31.58
68399;BME280;56258;52.196;13.868;2023-03-01T05:20:16;102575.72;;;19.23;31.83
68399;BME280;56258;52.196;13.868;2023-03-01T05:22:43;102571.19;;;19.23;31.93
68399;BME280;56258;52.196;13.868;2023-03-01T05:25:09;102575.84;;;19.21;31.59
68399;BME280;56258;52.196;13.868;2023-03-01T05:27:36;102571.19;;;19.23;31.95
68399;BME280;56258;52.196;13.868;2023-03-01T05:30:03;102577.56;;;19.22;31.34
68399;BME280;56258;52.196;13.868;2023-03-01T05:32:41;102578.41;;;19.23;31.40
68399;BME280;56258;52.196;13.868;2023-03-01T05:35:14;102578.53;;;19.21;31.53
68399;BME280;56258;52.196;13.868;2023-03-01T05:37:42;102584.06;;;19.20;31.71
68399;BME280;56258;52.196;13.868;2023-03-01T05:40:11;102579.53;;;19.20;31.22
68399;BME280;56258;52.196;13.868;2023-03-01T05:42:46;102579.53;;;19.20;31.64
68399;BME280;56258;52.196;13.868;2023-03-01T05:45:14;102584.34;;;19.17;31.71
68399;BME280;56258;52.196;13.868;2023-03-01T05:47:43;102578.66;;;19.20;31.30
68399;BME280;56258;52.196;13.868;2023-03-01T05:50:12;102579.78;;;19.17;31.45
68399;BME280;56258;52.196;13.868;2023-03-01T05:52:39;102583.22;;;19.19;31.15
68399;BME280;56258;52.196;13.868;2023-03-01T05:55:06;102575.84;;;19.21;31.78
68399;BME280;56258;52.196;13.868;2023-03-01T05:57:33;102573.41;;;19.18;31.43
68399;BME280;56258;52.196;13.868;2023-03-01T05:59:59;102574.97;;;19.21;31.98
68399;BME280;56258;52.196;13.868;2023-03-01T06:02:26;102577.56;;;19.22;31.25
68399;BME280;56258;52.196;13.868;2023-03-01T06:04:53;102576.09;;;19.18;31.65
68399;BME280;56258;52.196;13.868;2023-03-01T06:07:20;102571.31;;;19.22;31.14
68399;BME280;56258;52.196;13.868;2023-03-01T06:09:46;102582.97;;;19.22;31.14
68399;BME280;56258;52.196;13.868;2023-03-01T06:12:13;102577.81;;;19.19;31.15
68399;BME280;56258;52.196;13.868;2023-03-01T06:14:40;102577.94;;;19.18;31.80
68399;BME280;56258;52.196;13.868;2023-03-01T06:17:06;102590.31;;;19.20;31.38
68399;BME280;56258;52.196;13.868;2023-03-01T06:19:33;102584.91;;;19.20;31.26
68399;BME280;56258;52.196;13.868;2023-03-01T06:21:59;102588.59;;;19.19;31.72
68399;BME280;56258;52.196;13.868;2023-03-01T06:24:26;102593.84;;;19.21;31.67
68399;BME280;56258;52.196;13.868;2023-03-01T06:26:55;102583.69;;;19.24;31.57
68399;BME280;56258;52.196;13.868;2023-03-01T06:29:22;102594.19;;;19.28;31.70
68399;BME280;56258;52.196;13.868;2023-03-01T06:31:49;102589.66;;;19.28;31.89
68399;BME280;56258;52.196;13.868;2023-03-01T06:34:15;102583.13;;;19.31;31.72
68399;BME280;56258;52.196;13.868;2023-03-01T06:36:42;102586.44;;;19.34;31.73
68399;BME280;56258;52.196;13.868;2023-03-01T06:39:09;102586.00;;;19.39;31.82
68399;BME280;56258;52.196;13.868;2023-03-01T06:41:35;102593.44;;;19.46;31.32
68399;BME280;56258;52.196;13.868;2023-03-01T06:44:02;102583.34;;;19.48;31.88
68399;BME280;56258;52.196;13.868;2023-03-01T06:46:29;102588.63;;;19.50;31.84
68399;BME280;56258;52.196;13.868;2023-03-01T06:48:56;102590.31;;;19.51;31.39
68399;BME280;56258;52.196;13.868;2023-03-01T06:51:22;102591.16;;;19.51;31.34
68399;BME280;56258;52.196;13.868;2023-03-01T06:53:49;102591.31;;;19.50;31.90
68399;BME280;56258;52.196;13.868;2023-03-01T06:56:16;102595.56;;;19.52;31.83
68399;BME280;56258;52.196;13.868;2023-03-01T06:58:42;102602.09;;;19.50;32.02
68399;BME280;56258;52.196;13.868;2023-03-01T07:01:09;102608.06;;;19.53;31.61
68399;BME280;56258;52.196;13.868;2023-03-01T07:03:36;102600.84;;;19.54;31.94
68399;BME280;56258;52.196;13.868;2023-03-01T07:06:03;102602.81;;;19.52;31.54
68399;BME280;56258;52.196;13.868;2023-03-01T07:08:29;102602.09;;;19.50;31.48
68399;BME280;56258;52.196;13.868;2023-03-01T07:10:57;102605.66;;;19.50;31.34
68399;BME280;56258;52.196;13.868;2023-03-01T07:13:24;102599.41;;;19.50;32.06
68399;BME280;56258;52.196;13.868;2023-03-01T07:15:51;102598.56;;;19.49;31.40
68399;BME280;56258;52.196;13.868;2023-03-01T07:18:17;102596.56;;;19.51;31.52
68399;BME280;56258;52.196;13.868;2023-03-01T07:20:44;102597.41;;;19.52;31.71
68399;BME280;56258;52.196;13.868;2023-03-01T07:23:11;102601.81;;;19.53;31.64
68399;BME280;56258;52.196;13.868;2023-03-01T07:25:37;102590.19;;;19.52;31.84
68399;BME280;56258;52.196;13.868;2023-03-01T07:28:04;102595.44;;;19.54;31.47
68399;BME280;56258;52.196;13.868;2023-03-01T07:30:30;102598.97;;;19.54;31.57
68399;BME280;56258;52.196;13.868;2023-03-01T07:32:58;102606.97;;;19.56;31.50
68399;BME280;56258;52.196;13.868;2023-03-01T07:35:26;102600.63;;;19.57;31.43
68399;BME280;56258;52.196;13.868;2023-03-01T07:37:53;102605.88;;;19.59;31.55
68399;BME280;56258;52.196;13.868;2023-03-01T07:40:20;102604.28;;;19.56;31.37
68399;BME280;56258;52.196;13.868;2023-03-01T07:42:46;102600.47;;;19.59;31.22
68399;BME280;56258;52.196;13.868;2023-03-01T07:45:13;102610.28;;;19.60;31.49
68399;BME280;56258;52.196;13.868;2023-03-01T07:47:40;102615.66;;;19.60;31.24
68399;BME280;56258;52.196;13.868;2023-03-01T07:50:07;102622.63;;;19.62;31.23
68399;BME280;56258;52.196;13.868;2023-03-01T07:52:34;102617.25;;;19.62;30.95
68399;BME280;56258;52.196;13.868;2023-03-01T07:55:00;102607.88;;;19.66;30.84
68399;BME280;56258;52.196;13.868;2023-03-01T07:57:27;102607.63;;;19.69;31.17
68399;BME280;56258;52.196;13.868;2023-03-01T07:59:53;102603.66;;;19.73;31.18
68399;BME280;56258;52.196;13.868;2023-03-01T08:02:20;102595.13;;;19.78;30.71
68399;BME280;56258;52.196;13.868;2023-03-01T08:04:47;102600.97;;;19.83;30.58
68399;BME280;56258;52.196;13.868;2023-03-01T08:07:13;102595.47;;;19.94;30.71
68399;BME280;56258;52.196;13.868;2023-03-01T08:09:40;102598.78;;;20.07;30.45
68399;BME280;56258;52.196;13.868;2023-03-01T08:12:06;102606.19;;;20.15;30.34
68399;BME280;56258;52.196;13.868;2023-03-01T08:14:33;102601.63;;;20.25;30.48
68399;BME280;56258;52.196;13.868;2023-03-01T08:17:00;102609.47;;;20.28;29.89
68399;BME280;56258;52.196;13.868;2023-03-01T08:19:29;102599.38;;;20.30;29.45
68399;BME280;56258;52.196;13.868;2023-03-01T08:21:56;102597.69;;;20.39;29.20
68399;BME280;56258;52.196;13.868;2023-03-01T08:24:24;102602.69;;;20.53;29.55
68399;BME280;56258;52.196;13.868;2023-03-01T08:26:51;102601.84;;;20.62;29.46
68399;BME280;56258;52.196;13.868;2023-03-01T08:29:17;102589.03;;;20.84;29.05
68399;BME280;56258;52.196;13.868;2023-03-01T08:31:44;102583.31;;;20.96;28.74
68399;BME280;56258;52.196;13.868;2023-03-01T08:34:13;102600.16;;;21.18;28.63
68399;BME280;56258;52.196;13.868;2023-03-01T08:36:42;102592.28;;;21.44;28.12
68399;BME280;56258;52.196;13.868;2023-03-01T08:39:12;102595.94;;;21.52;27.54
68399;BME280;56258;52.196;13.868;2023-03-01T08:41:39;102597.25;;;21.76;27.46
68399;BME280;56258;52.196;13.868;2023-03-01T08:44:06;102605.75;;;21.91;27.34
68399;BME280;56258;52.196;13.868;2023-03-01T08:46:35;102587.59;;;22.01;26.68
68399;BME280;56258;52.196;13.868;2023-03-01T08:49:06;102595.75;;;22.19;26.90
68399;BME280;56258;52.196;13.868;2023-03-01T08:51:33;102595.63;;;22.38;26.70
68399;BME280;56258;52.196;13.868;2023-03-01T08:54:04;102591.03;;;22.56;26.36
68399;BME280;56258;52.196;13.868;2023-03-01T08:56:32;102592.19;;;22.71;26.34
68399;BME280;56258;52.196;13.868;2023-03-01T08:58:59;102583.59;;;22.94;25.74
68399;BME280;56258;52.196;13.868;2023-03-01T09:01:26;102580.34;;;23.16;25.29
68399;BME280;56258;52.196;13.868;2023-03-01T09:03:52;102583.81;;;23.35;25.22
68399;BME280;56258;52.196;13.868;2023-03-01T09:06:19;102582.44;;;23.31;25.63
68399;BME280;56258;52.196;13.868;2023-03-01T09:08:48;102580.78;;;23.38;24.95
68399;BME280;56258;52.196;13.868;2023-03-01T09:11:18;102576.56;;;23.09;25.53
68399;BME280;56258;52.196;13.868;2023-03-01T09:13:46;102572.13;;;22.64;25.77
68399;BME280;56258;52.196;13.868;2023-03-01T09:16:15;102580.13;;;22.12;26.82
68399;BME280;56258;52.196;13.868;2023-03-01T09:18:43;102586.94;;;21.89;26.83
68399;BME280;56258;52.196;13.868;2023-03-01T09:21:15;102578.00;;;22.06;27.07
68399;BME280;56258;52.196;13.868;2023-03-01T09:23:46;102572.84;;;22.13;27.06
68399;BME280;56258;52.196;13.868;2023-03-01T09:26:18;102570.13;;;22.13;26.68
68399;BME280;56258;52.196;13.868;2023-03-01T09:28:46;102562.03;;;22.03;26.61
68399;BME280;56258;52.196;13.868;2023-03-01T09:31:14;102562.63;;;21.79;27.04
68399;BME280;56258;52.196;13.868;2023-03-01T09:33:41;102566.19;;;22.25;26.40
68399;BME280;56258;52.196;13.868;2023-03-01T09:36:13;102562.69;;;22.51;26.53
68399;BME280;56258;52.196;13.868;2023-03-01T09:38:40;102560.03;;;22.77;25.83
68399;BME280;56258;52.196;13.868;2023-03-01T09:44:00;102560.47;;;22.28;26.05
68399;BME280;56258;52.196;13.868;2023-03-01T09:46:38;102553.41;;;23.23;25.43
68399;BME280;56258;52.196;13.868;2023-03-01T09:49:30;102555.78;;;24.10;24.08
68399;BME280;56258;52.196;13.868;2023-03-01T09:52:21;102558.38;;;25.01;22.90
68399;BME280;56258;52.196;13.868;2023-03-01T09:54:54;102565.47;;;26.05;21.70
68399;BME280;56258;52.196;13.868;2023-03-01T09:57:57;102562.38;;;26.54;21.14
68399;BME280;56258;52.196;13.868;2023-03-01T10:00:45;102565.75;;;26.94;20.63
68399;BME280;56258;52.196;13.868;2023-03-01T10:05:57;102567.41;;;27.47;19.76
68399;BME280;56258;52.196;13.868;2023-03-01T10:08:27;102568.34;;;27.69;19.66
68399;BME280;56258;52.196;13.868;2023-03-01T10:10:58;102560.72;;;28.01;19.19
68399;BME280;56258;52.196;13.868;2023-03-01T10:13:34;102556.22;;;28.29;19.53
68399;BME280;56258;52.196;13.868;2023-03-01T10:19:02;102550.66;;;28.93;18.40
68399;BME280;56258;52.196;13.868;2023-03-01T10:21:30;102552.75;;;29.26;18.03
68399;BME280;56258;52.196;13.868;2023-03-01T10:24:10;102541.06;;;29.45;17.99
68399;BME280;56258;52.196;13.868;2023-03-01T10:26:56;102539.75;;;29.34;17.83
68399;BME280;56258;52.196;13.868;2023-03-01T10:29:30;102536.38;;;29.39;18.04
68399;BME280;56258;52.196;13.868;2023-03-01T10:32:00;102529.50;;;29.09;18.21
68399;BME280;56258;52.196;13.868;2023-03-01T10:34:34;102532.59;;;28.99;18.07
68399;BME280;56258;52.196;13.868;2023-03-01T10:37:21;102523.28;;;28.93;18.36
68399;BME280;56258;52.196;13.868;2023-03-01T10:40:02;102528.44;;;28.54;18.72
68399;BME280;56258;52.196;13.868;2023-03-01T10:42:39;102524.72;;;27.97;19.22
68399;BME280;56258;52.196;13.868;2023-03-01T10:45:35;102527.22;;;26.59;21.27
68399;BME280;56258;52.196;13.868;2023-03-01T10:48:24;102523.63;;;25.12;22.79
68399;BME280;56258;52.196;13.868;2023-03-01T10:53:36;102510.75;;;23.41;24.96
68399;BME280;56258;52.196;13.868;2023-03-01T10:56:07;102511.22;;;23.03;25.32
68399;BME280;56258;52.196;13.868;2023-03-01T10:58:37;102512.63;;;22.81;25.65
68399;BME280;56258;52.196;13.868;2023-03-01T11:01:34;102508.97;;;22.46;26.48
68399;BME280;56258;52.196;13.868;2023-03-01T11:06:35;102504.19;;;22.84;25.65
68399;BME280;56258;52.196;13.868;2023-03-01T11:09:22;102498.84;;;22.56;26.44
68399;BME280;56258;52.196;13.868;2023-03-01T11:11:56;102500.50;;;21.96;27.09
68399;BME280;56258;52.196;13.868;2023-03-01T11:14:27;102494.19;;;21.42;27.71
68399;BME280;56258;52.196;13.868;2023-03-01T11:17:00;102494.75;;;21.08;28.28
68399;BME280;56258;52.196;13.868;2023-03-01T11:19:27;102487.00;;;20.86;28.82
68399;BME280;56258;52.196;13.868;2023-03-01T11:24:52;102490.19;;;20.52;28.90
68399;BME280;56258;52.196;13.868;2023-03-01T11:27:38;102489.06;;;20.55;28.96
68399;BME280;56258;52.196;13.868;2023-03-01T11:30:20;102495.16;;;20.57;28.64
68399;BME280;56258;52.196;13.868;2023-03-01T11:32:57;102489.19;;;20.53;28.78
68399;BME280;56258;52.196;13.868;2023-03-01T11:35:28;102484.91;;;20.41;29.22
68399;BME280;56258;52.196;13.868;2023-03-01T11:40:33;102483.63;;;20.35;29.20
68399;BME280;56258;52.196;13.868;2023-03-01T11:43:06;102480.94;;;20.35;29.40
68399;BME280;56258;52.196;13.868;2023-03-01T11:45:51;102478.13;;;20.27;29.70
68399;BME280;56258;52.196;13.868;2023-03-01T11:51:44;102474.94;;;20.71;29.02
68399;BME280;56258;52.196;13.868;2023-03-01T11:54:13;102468.41;;;20.63;28.83
68399;BME280;56258;52.196;13.868;2023-03-01T11:57:00;102469.84;;;20.58;29.00
68399;BME280;56258;52.196;13.868;2023-03-01T12:05:11;102470.28;;;20.34;29.50
68399;BME280;56258;52.196;13.868;2023-03-01T12:10:27;102468.44;;;20.34;29.71
68399;BME280;56258;52.196;13.868;2023-03-01T12:16:07;102462.47;;;20.31;29.14
68399;BME280;56258;52.196;13.868;2023-03-01T12:19:01;102461.31;;;20.24;29.25
68399;BME280;56258;52.196;13.868;2023-03-01T12:30:04;102453.06;;;20.64;29.15
68399;BME280;56258;52.196;13.868;2023-03-01T12:35:11;102447.25;;;24.17;23.76
68399;BME280;56258;52.196;13.868;2023-03-01T12:38:08;102434.44;;;25.30;22.84
68399;BME280;56258;52.196;13.868;2023-03-01T12:43:51;102426.34;;;25.14;22.81
68399;BME280;56258;52.196;13.868;2023-03-01T12:54:50;102413.69;;;25.29;23.02
68399;BME280;56258;52.196;13.868;2023-03-01T12:57:28;102412.88;;;25.20;22.94
68399;BME280;56258;52.196;13.868;2023-03-01T13:06:12;102397.88;;;24.77;23.56
68399;BME280;56258;52.196;13.868;2023-03-01T13:08:50;102394.88;;;24.64;23.87
68399;BME280;56258;52.196;13.868;2023-03-01T13:11:23;102387.25;;;24.59;23.93
68399;BME280;56258;52.196;13.868;2023-03-01T13:13:50;102384.22;;;24.46;24.39
68399;BME280;56258;52.196;13.868;2023-03-01T13:18:47;102366.78;;;23.75;25.08
68399;BME280;56258;52.196;13.868;2023-03-01T13:21:29;102372.72;;;23.63;25.55
68399;BME280;56258;52.196;13.868;2023-03-01T13:23:56;102364.34;;;23.48;25.83
68399;BME280;56258;52.196;13.868;2023-03-01T13:26:23;102369.59;;;23.33;25.91
68399;BME280;56258;52.196;13.868;2023-03-01T13:28:55;102364.66;;;23.20;26.03
68399;BME280;56258;52.196;13.868;2023-03-01T13:41:51;102357.88;;;23.33;25.94
68399;BME280;56258;52.196;13.868;2023-03-01T13:46:52;102345.69;;;23.53;25.79
68399;BME280;56258;52.196;13.868;2023-03-01T13:49:25;102342.47;;;23.57;25.68
68399;BME280;56258;52.196;13.868;2023-03-01T13:52:01;102335.56;;;23.63;25.55
68399;BME280;56258;52.196;13.868;2023-03-01T13:54:32;102335.03;;;23.68;25.76
68399;BME280;56258;52.196;13.868;2023-03-01T13:57:00;102337.25;;;23.72;25.58
68399;BME280;56258;52.196;13.868;2023-03-01T13:59:27;102331.47;;;23.67;25.64
68399;BME280;56258;52.196;13.868;2023-03-01T14:01:58;102329.78;;;23.66;25.56
68399;BME280;56258;52.196;13.868;2023-03-01T14:04:32;102329.25;;;23.71;25.54
68399;BME280;56258;52.196;13.868;2023-03-01T14:07:22;102328.94;;;23.66;25.71
68399;BME280;56258;52.196;13.868;2023-03-01T14:09:58;102316.88;;;23.52;26.03
68399;BME280;56258;52.196;13.868;2023-03-01T14:20:37;102317.03;;;23.42;25.80
68399;BME280;56258;52.196;13.868;2023-03-01T14:23:12;102302.78;;;23.40;26.07
68399;BME280;56258;52.196;13.868;2023-03-01T14:28:23;102311.25;;;23.29;25.89
68399;BME280;56258;52.196;13.868;2023-03-01T14:30:53;102309.88;;;23.25;25.99
68399;BME280;56258;52.196;13.868;2023-03-01T14:36:02;102302.09;;;23.46;25.83